Darstellungsparameter: Aktuell verwendete Einstellungen:
Skalierung der Graphiken ... ?
xyx+y,   Skalierungsfaktor:      Skalierung: Modus: x, Faktor: 1
Darstellungszeitraum ... ?
Vom - - bis: - -   Zeitraum: 14.05.2021 - 14.05.2021
Min/Max/Avg-Anzeige ... ?
Zeige MMA aktuell
Zeige MMA Monat
Zeige MMA alles
Zeige --A aktuell
Zeige --A Monat
Zeige --A alles
Keine MMA-Anzeige
MMA:
Average (ber die Originaldaten)
MMA-Basis: 23.02.2003 - 29.09.2020
Quicknavigation für Darstellung... ?
Tage:      1T, 2T, 3T, 5T -1T -2T -3T -5T +1T +2T +3T +5T
Wochen: 1W, 2W, 3W -1W -2W -3W +1W +2W +3W
Monate: 1M, 3M, 6M -1M -3M -6M +1M +3M +6M
Jahre:    1J, 3J, 5J, 10J -1J -3J -5J -10J +1J +3J +5J +10J
Nutze für die Darstellung ... ?
Originaldaten oder Mittelwerte auf ...
Stundenbasis Tagesbasis Wochenbasis
Monatsbasis Jahresbasis      Datenbasis: Original-Daten
Darstellen als:
Statistik (Auto) Statistik J:M      Darstellung:

Der gewünschte Datumsbereich war nicht gültig/verfügbar und wurde korrigiert....
Das angegebene Enddatum (28.09.2024 23:59:59) liegt in der Zukunft.
Das angegebene Startdatum (29.08.2024 00:00:00) liegt in der Zukunft.


Zur Graphik,    zurück zur Übersicht aller Sensoren.
 
Tabellarische Datenbersicht: ?
 
Sensor: Nr:Datum:Temp:Abs-Feuchte:Windchill:Wind:
Aussen-T/F 1 14-05-2021 02:00:00 10.8 C 8.6 g/m*3 10.8 C 1.6 km/h
2 14-05-2021 02:05:00 10.7 C 8.45 g/m*3 10.7 C 1.6 km/h
3 14-05-2021 02:10:00 10.6 C 8.39 g/m*3 10.6 C 0 km/h
4 14-05-2021 02:15:00 10.4 C 8.29 g/m*3 10.4 C 1.6 km/h
5 14-05-2021 02:20:00 10.3 C 8.24 g/m*3 10.3 C 1.6 km/h
6 14-05-2021 02:25:00 10.2 C 8.28 g/m*3 10.2 C 0 km/h
7 14-05-2021 02:30:00 10.1 C 8.23 g/m*3 10.1 C 1.6 km/h
8 14-05-2021 02:35:00 9.9 C 8.12 g/m*3 9.9 C 0 km/h
9 14-05-2021 02:40:00 9.8 C 8.07 g/m*3 9.8 C 0 km/h
10 14-05-2021 02:45:00 9.6 C 8.06 g/m*3 9.6 C 0 km/h
11 14-05-2021 02:50:00 9.5 C 8.01 g/m*3 9.5 C 0 km/h
12 14-05-2021 02:55:00 9.4 C 7.96 g/m*3 9.4 C 0 km/h
13 14-05-2021 03:00:00 9.3 C 7.91 g/m*3 9.3 C 0 km/h
14 14-05-2021 03:05:00 9.2 C 7.95 g/m*3 9.2 C 0 km/h
15 14-05-2021 03:10:00 9.1 C 7.9 g/m*3 9.1 C 0 km/h
16 14-05-2021 03:15:00 8.9 C 7.8 g/m*3 8.9 C 0 km/h
17 14-05-2021 03:20:00 8.8 C 7.75 g/m*3 8.8 C 0 km/h
18 14-05-2021 03:25:00 8.7 C 7.7 g/m*3 8.7 C 0 km/h
19 14-05-2021 03:30:00 8.6 C 7.73 g/m*3 8.6 C 0 km/h
20 14-05-2021 03:35:00 8.5 C 7.68 g/m*3 8.5 C 0 km/h
21 14-05-2021 03:40:00 8.4 C 7.63 g/m*3 8.4 C 0 km/h
22 14-05-2021 03:45:00 8.3 C 7.59 g/m*3 8.3 C 0 km/h
23 14-05-2021 03:50:00 8.3 C 7.59 g/m*3 8.3 C 3.2 km/h
24 14-05-2021 03:55:00 8.2 C 7.54 g/m*3 8.2 C 0 km/h
25 14-05-2021 04:00:00 8.1 C 7.57 g/m*3 8.1 C 0 km/h
Sensor: Nr:Datum:Temp:Abs-Feuchte:Windchill:Wind:
Aussen-T/F 26 14-05-2021 04:05:00 8.1 C 7.57 g/m*3 8.1 C 1.6 km/h
27 14-05-2021 04:10:00 8.1 C 7.57 g/m*3 8.1 C 0 km/h
28 14-05-2021 04:15:00 8 C 7.52 g/m*3 8 C 4.8 km/h
29 14-05-2021 04:20:00 8.1 C 7.57 g/m*3 8.1 C 4.8 km/h
30 14-05-2021 04:25:00 8 C 7.52 g/m*3 8 C 0 km/h
31 14-05-2021 04:30:00 7.9 C 7.47 g/m*3 7.9 C 0 km/h
32 14-05-2021 04:35:00 7.9 C 7.47 g/m*3 7.9 C 0 km/h
33 14-05-2021 04:40:00 7.8 C 7.43 g/m*3 7.8 C 0 km/h
34 14-05-2021 04:45:00 7.7 C 7.38 g/m*3 7.7 C 0 km/h
35 14-05-2021 04:50:00 7.7 C 7.38 g/m*3 7.7 C 4.8 km/h
36 14-05-2021 04:55:00 7.7 C 7.38 g/m*3 7.7 C 4.8 km/h
37 14-05-2021 05:00:00 7.7 C 7.38 g/m*3 7.7 C 1.6 km/h
38 14-05-2021 05:05:00 7.7 C 7.38 g/m*3 7.7 C 0 km/h
39 14-05-2021 05:10:00 7.7 C 7.38 g/m*3 7.7 C 0 km/h
40 14-05-2021 05:15:00 7.6 C 7.33 g/m*3 7.6 C 1.6 km/h
41 14-05-2021 05:20:00 7.5 C 7.28 g/m*3 7.5 C 0 km/h
42 14-05-2021 05:25:00 7.4 C 7.24 g/m*3 7.4 C 0 km/h
43 14-05-2021 05:30:00 7.3 C 7.19 g/m*3 7.3 C 0 km/h
44 14-05-2021 05:35:00 7.3 C 7.19 g/m*3 7.3 C 3.2 km/h
45 14-05-2021 05:40:00 7.3 C 7.27 g/m*3 7.3 C 4.8 km/h
46 14-05-2021 05:45:00 7.3 C 7.27 g/m*3 7.3 C 1.6 km/h
47 14-05-2021 05:50:00 7.3 C 7.27 g/m*3 7.3 C 1.6 km/h
48 14-05-2021 05:55:00 7.3 C 7.27 g/m*3 7.3 C 1.6 km/h
49 14-05-2021 06:00:00 7.4 C 7.32 g/m*3 7.4 C 1.6 km/h
50 14-05-2021 06:05:00 7.4 C 7.32 g/m*3 7.4 C 4.8 km/h
Sensor: Nr:Datum:Temp:Abs-Feuchte:Windchill:Wind:
Aussen-T/F 51 14-05-2021 06:10:00 7.4 C 7.32 g/m*3 7.4 C 1.6 km/h
52 14-05-2021 06:15:00 7.4 C 7.32 g/m*3 7.4 C 3.2 km/h
53 14-05-2021 06:20:00 7.4 C 7.32 g/m*3 7.4 C 0 km/h
54 14-05-2021 06:25:00 7.4 C 7.32 g/m*3 7.4 C 0 km/h
55 14-05-2021 06:30:00 7.4 C 7.32 g/m*3 7.4 C 0 km/h
56 14-05-2021 06:35:00 7.4 C 7.32 g/m*3 7.4 C 0 km/h
57 14-05-2021 06:40:00 7.4 C 7.32 g/m*3 7.4 C 0 km/h
58 14-05-2021 06:45:00 7.6 C 7.41 g/m*3 7.6 C 1.6 km/h
59 14-05-2021 06:50:00 7.6 C 7.41 g/m*3 7.6 C 0 km/h
60 14-05-2021 06:55:00 7.7 C 7.46 g/m*3 7.7 C 1.6 km/h
61 14-05-2021 07:00:00 7.8 C 7.51 g/m*3 7.8 C 3.2 km/h
62 14-05-2021 07:05:00 8 C 7.52 g/m*3 7.06 C 6.4 km/h
63 14-05-2021 07:10:00 8.1 C 7.57 g/m*3 8.1 C 4.8 km/h
64 14-05-2021 07:15:00 8.2 C 7.62 g/m*3 8.2 C 0 km/h

Legende:
   Min
   Max


Maximal/Minimal-Werte vom 23.02.2003 - 29.09.2020

Sensor Min Max Avg
Temp
(Aussen-T/F)
-16.4 °C
20-12-2009  01:30:01
40.4 °C
25-07-2019  16:20:00
11.32 °C

Die Daten stammen von einer Davis Vantage Pro 2 Wetter-Station und werden unter Linux mit der Software wview2wettercgi und aufbereitet. Alle Angaben erfolgen ohne Gewähr für ihre Vollständigkeit oder Richtigkeit.
Kontakt: Rainer Krienke krienke@uni-koblenz.de . Meine Webseiten an der Uni Koblenz oder privat.
Version: $Revision: 0.78 $